AirNav   Pilot Hours Calculator
 
 701 users online  

TX91 Madeira Airpark
Garland, Texas, USA

GOING TO GARLAND?


FAA INFORMATION EFFECTIVE 22 APRIL 2021

Location

FAA Identifier: TX91
Lat/Long: 32-54-27.4460N 096-35-48.9730W
32-54.457433N 096-35.816217W
32.9076239,-96.5969369
(estimated)
Elevation: 450 ft. / 137 m (estimated)
Variation: 06E (1985)
From city: 2 miles E of GARLAND, TX
Time zone: UTC -5 (UTC -6 during Standard Time)
Zip code: 75040

Airport Operations

Airport use: Private use. Permission required prior to landing
Activation date: 08/1976
Control tower: no
ARTCC: FORT WORTH CENTER
FSS: FORT WORTH FLIGHT SERVICE STATION
Attendance: IREG
Wind indicator: no
Segmented circle: no

Airport Communications

WX AWOS-3 at F46 (8 nm E): 121.25 (972-772-6699)
WX AWOS-3 at HQZ (10 nm S): 118.175 (972-222-7631)
WX AWOS-3 at ADS (13 nm W): PHONE 972-386-4855
WX AWOS-3 at 49T (13 nm SW): 135.425 (214-670-1243)
WX ASOS at DAL (13 nm W): PHONE 214-353-1551
WX ASOS at TKI (16 nm N): 119.925 (972-548-8525)
WX ASOS at RBD (19 nm SW): PHONE 214-330-5317

Nearby radio navigation aids

VOR radial/distance  VOR name  Freq  Var
CVEr080/15.5COWBOY VOR/DME116.2006E
TTTr078/22.5MAVERICK VOR/DME113.1006E
FUZr082/29.4RANGER VORTAC115.7006E

 
NDB name  Hdg/Dist  Freq  Var  ID
MESQUITE327/6.824803EPQF .--. --.- ..-.
TRAVIS291/19.626006EAVZ .- ...- --..

Airport Services

Runway Information

Runway 5/23

Dimensions: 1100 x 100 ft. / 335 x 30 m
Surface: turf
RUNWAY 5  RUNWAY 23
Traffic pattern: leftleft
Obstructions: 18 ft. pline50 ft. pline, 660 ft. from runway

Airport Ownership and Management from official FAA records

Ownership: Privately-owned
Owner: MADEIRA AIR SUPPLY INC.
2826 E CENTERVILLE
GARLAND, TX 75040
Phone 214-494-0159
Manager: PAUL W. PENKAVA
2826 E CENTERVILLE
GARLAND, TX 75040
Phone 214-494-0159

Additional Remarks

FOR CD CTC REGIONAL APCH AT 972-615-2799.

Instrument Procedures

There are no published instrument procedures at TX91.

Some nearby airports with instrument procedures:

F46 - Ralph M Hall/Rockwall Municipal Airport (8 nm E)
KHQZ - Mesquite Metro Airport (10 nm S)
KADS - Addison Airport (13 nm W)
KDAL - Dallas Love Field Airport (13 nm W)
KTKI - McKinney NTL Airport (16 nm N)
KRBD - Dallas Executive Airport (19 nm SW)
7F3 - Caddo Mills Municipal Airport (19 nm NE)
 
Loc | Ops | Rwys | IFR | FBO | Links
Com | Nav | Svcs | Stats | Notes

City of Fort Worth
 
Area around TX91 (Madeira Airpark)
 
Road maps at: MapQuest Bing Google
 
Aerial photo
No photo
 
Sectional chart

 
Airport distance calculator
Flying to Madeira Airpark? Find the distance to fly.

From to TX91

Sunrise and sunset
Times for 11-May-2021
 Local
(UTC-5)
 Zulu
(UTC)
Morning civil twilight06:0411:04
Sunrise06:3111:31
Sunset20:1401:14
Evening civil twilight20:4101:41

Current date and time
Zulu (UTC)  12-May-2021 04:13:20
Local (UTC-5)  11-May-2021 23:13:20
 
METAR
KF46 
8nm E 
120355Z AUTO 03008KT 3SM BR OVC003 14/14 A3011 RMK AO2 T01400140
KHQZ 
10nm S 
120355Z AUTO 02005KT 10SM OVC005 15/15 A3011 RMK AO1 T01450145
KADS 
12nm W 
120355Z AUTO 01006KT 5SM -DZ OVC006 14/14 A3013 RMK AO2 T01410138
KDAL 
13nm W 
120353Z 36007G24KT 280V030 5SM BR OVC006 15/13 A3011 RMK AO2 RAB26E53 CIG 004V011 SLP191 P0000 T01500133
KTKI 
17nm N 
120353Z AUTO 02008KT 6SM BR BKN005 OVC013 14/13 A3012 RMK AO2 CIG 003V009 SLP204 T01390133
KRBD 
19nm SW 
120353Z AUTO 02008KT 8SM OVC004 15/14 A3010 RMK AO2 SLP189 T01500139
TAF
KDAL 
13nm W 
112111Z 1121/1218 01010KT P6SM FEW008 OVC025 TEMPO 1121/1122 -SHRA OVC006 FM120200 03010KT 5SM BR VCSH OVC005 FM120600 03010KT P6SM OVC005
NOTAMs
Click for the latest NOTAMs
NOTAMs are issued by the DoD/FAA and will open in a separate window not controlled by AirNav.

 

 
 

Would you like to see your business listed on this page?

 If your business provides an interesting product or service to pilots, flight crews, aircraft, or users of the Madeira Airpark, you should consider listing it here.  To start the listing process, click on the button below
 
Add a business
 

Other Pages about Madeira Airpark

Update a link
 
Copyright © AirNav, LLC. All rights reserved. Privacy Policy  Contact